Time;durP1;ratioP1;P1;durP2;ratioP2;P2;SDS_P1;SDS_P2;PMS_P1;PMS_P2;Temp;Humidity;BMP_temperature;BMP_pressure;BME280_temperature;BME280_humidity;BME280_pressure;Samples;Min_cycle;Max_cycle;Signal;HPM_P1;HPM_P2
2022/04/09 00:00:33;;;;;;;17.63;10.43;;;15.30;81.20;;;;;;5248223;28;19928;-41
2022/04/09 00:03:08;;;;;;;15.57;9.87;;;15.30;81.20;;;;;;5247696;28;20041;-41
2022/04/09 00:05:39;;;;;;;15.13;8.97;;;15.30;81.40;;;;;;5248159;28;20047;-41
2022/04/09 00:08:10;;;;;;;19.03;10.93;;;15.30;81.40;;;;;;5248059;28;20040;-41
2022/04/09 00:10:41;;;;;;;18.00;10.57;;;15.30;81.40;;;;;;5248306;28;20086;-41
2022/04/09 00:13:12;;;;;;;16.90;10.80;;;15.30;81.40;;;;;;5248066;28;20052;-41
2022/04/09 00:15:43;;;;;;;17.80;9.87;;;15.20;81.40;;;;;;5248465;28;20230;-41
2022/04/09 00:18:15;;;;;;;16.47;10.50;;;15.20;81.40;;;;;;5248129;28;20071;-43
2022/04/09 00:20:46;;;;;;;14.10;9.93;;;15.20;81.50;;;;;;5248325;28;20054;-41
2022/04/09 00:23:18;;;;;;;14.30;8.77;;;15.20;81.30;;;;;;5248100;28;20044;-42
2022/04/09 00:25:50;;;;;;;14.43;9.10;;;15.20;81.40;;;;;;5248162;28;20051;-42
2022/04/09 00:28:21;;;;;;;13.97;9.57;;;15.20;81.40;;;;;;5247817;28;20053;-42
2022/04/09 00:30:52;;;;;;;13.50;9.20;;;15.20;81.40;;;;;;5248088;28;20053;-41
2022/04/09 00:33:23;;;;;;;14.40;8.73;;;15.20;81.40;;;;;;5246612;28;20053;-41
2022/04/09 00:35:55;;;;;;;13.73;9.30;;;15.20;81.40;;;;;;5251005;28;20071;-41
2022/04/09 00:38:29;;;;;;;13.77;9.05;;;15.20;81.60;;;;;;5250325;28;20084;-42
2022/04/09 00:41:00;;;;;;;14.53;9.37;;;15.20;81.50;;;;;;5251545;28;20508;-42
2022/04/09 00:43:31;;;;;;;15.27;10.70;;;15.10;81.40;;;;;;5251776;28;20059;-43
2022/04/09 00:46:02;;;;;;;15.23;10.37;;;15.10;81.50;;;;;;5251763;28;20397;-41
2022/04/09 00:48:34;;;;;;;14.57;10.37;;;15.10;81.40;;;;;;5251434;28;20041;-43
2022/04/09 00:51:05;;;;;;;19.33;11.80;;;15.10;81.40;;;;;;5250554;28;20390;-43
2022/04/09 00:53:37;;;;;;;21.73;13.63;;;15.10;81.40;;;;;;5250074;28;20053;-42
2022/04/09 00:56:13;;;;;;;24.63;14.80;;;15.10;81.30;;;;;;5250975;28;20044;-41
2022/04/09 00:58:57;;;;;;;22.87;15.53;;;15.10;81.20;;;;;;5251365;28;20048;-42
2022/04/09 01:01:29;;;;;;;24.53;15.10;;;15.10;81.10;;;;;;5251743;28;20048;-42
2022/04/09 01:04:00;;;;;;;25.10;14.77;;;15.10;81.10;;;;;;5251260;28;20072;-41
2022/04/09 01:06:32;;;;;;;23.40;14.50;;;15.10;81.00;;;;;;5249986;28;20512;-41
2022/04/09 01:09:04;;;;;;;24.00;14.73;;;15.10;81.00;;;;;;5251126;28;20049;-44
2022/04/09 01:11:35;;;;;;;23.30;14.57;;;15.10;81.00;;;;;;5251354;28;20044;-44
2022/04/09 01:14:06;;;;;;;27.13;15.30;;;15.10;81.00;;;;;;5249866;28;20053;-41
2022/04/09 01:16:38;;;;;;;23.07;13.30;;;15.10;81.00;;;;;;5251631;28;20093;-42
2022/04/09 01:19:09;;;;;;;23.30;13.03;;;15.00;81.00;;;;;;5250123;28;20048;-43
2022/04/09 01:21:40;;;;;;;22.13;14.07;;;15.10;81.10;;;;;;5250952;28;20049;-43
2022/04/09 01:24:11;;;;;;;20.90;12.63;;;15.00;81.10;;;;;;5250528;28;20053;-41
2022/04/09 01:26:43;;;;;;;20.97;12.80;;;15.00;81.20;;;;;;5249565;28;20401;-43
2022/04/09 01:29:14;;;;;;;20.08;13.35;;;15.00;81.30;;;;;;5249680;28;20049;-43
2022/04/09 01:31:45;;;;;;;20.47;12.47;;;15.00;81.40;;;;;;5250821;28;20111;-43
2022/04/09 01:34:16;;;;;;;22.00;13.63;;;15.00;81.50;;;;;;5250467;28;20059;-42
2022/04/09 01:36:47;;;;;;;20.93;13.20;;;15.00;82.10;;;;;;5249525;28;20044;-41
2022/04/09 01:39:18;;;;;;;17.97;12.33;;;15.00;81.60;;;;;;5249196;28;20112;-41
2022/04/09 01:41:49;;;;;;;17.27;11.03;;;15.00;81.70;;;;;;5250328;28;20068;-43
2022/04/09 01:44:20;;;;;;;14.80;10.43;;;15.00;81.70;;;;;;5250591;28;20052;-41
2022/04/09 01:46:51;;;;;;;18.20;11.80;;;15.00;81.80;;;;;;5250749;28;20036;-40
2022/04/09 01:49:22;;;;;;;18.03;10.97;;;15.00;81.80;;;;;;5250180;28;20512;-42
2022/04/09 01:51:53;;;;;;;15.50;9.33;;;15.00;81.90;;;;;;5250103;28;20045;-41
2022/04/09 01:54:24;;;;;;;15.57;10.03;;;15.00;81.90;;;;;;5250381;28;20036;-44
2022/04/09 01:56:55;;;;;;;14.17;9.90;;;15.00;82.00;;;;;;5249994;28;20118;-42
2022/04/09 01:59:26;;;;;;;16.00;10.00;;;15.00;82.00;;;;;;5250125;28;20157;-41
2022/04/09 02:01:57;;;;;;;16.07;9.63;;;15.00;82.10;;;;;;5249388;28;20071;-42
2022/04/09 02:04:28;;;;;;;16.73;11.53;;;15.00;82.10;;;;;;5250067;28;20072;-43
2022/04/09 02:06:59;;;;;;;16.67;11.90;;;15.00;82.20;;;;;;5249103;28;20080;-41
2022/04/09 02:09:31;;;;;;;18.03;12.40;;;15.00;82.20;;;;;;5249834;28;20049;-41
2022/04/09 02:12:02;;;;;;;21.77;13.00;;;15.00;82.20;;;;;;5248782;28;20486;-43
2022/04/09 02:14:33;;;;;;;19.10;12.40;;;15.00;82.20;;;;;;5249874;28;20115;-41
2022/04/09 02:17:04;;;;;;;18.73;12.27;;;15.00;82.30;;;;;;5249635;28;20394;-41
2022/04/09 02:19:35;;;;;;;17.57;11.07;;;15.00;82.30;;;;;;5249757;28;20399;-41
2022/04/09 02:22:06;;;;;;;14.10;9.53;;;15.00;82.30;;;;;;5248399;28;20045;-41
2022/04/09 02:24:37;;;;;;;16.40;9.83;;;15.00;82.30;;;;;;5249656;28;20479;-42
2022/04/09 02:27:08;;;;;;;16.97;10.63;;;15.00;82.40;;;;;;5249458;28;20056;-42
2022/04/09 02:29:39;;;;;;;16.17;10.97;;;15.00;82.30;;;;;;5249546;28;20170;-41
2022/04/09 02:32:11;;;;;;;17.53;11.43;;;14.90;82.30;;;;;;5249512;28;20120;-41
2022/04/09 02:34:42;;;;;;;16.67;10.30;;;15.00;82.40;;;;;;5248949;28;20049;-42
2022/04/09 02:37:13;;;;;;;19.40;11.37;;;15.00;82.40;;;;;;5249085;28;20110;-41
2022/04/09 02:39:44;;;;;;;19.47;12.70;;;14.90;82.30;;;;;;5249417;28;20074;-41
2022/04/09 02:42:15;;;;;;;16.33;10.87;;;14.90;82.20;;;;;;5247816;28;20079;-41
2022/04/09 02:44:47;;;;;;;17.37;10.53;;;14.90;82.20;;;;;;5249195;28;20084;-40
2022/04/09 02:47:18;;;;;;;16.43;11.27;;;14.90;82.10;;;;;;5247833;28;20048;-42
2022/04/09 02:49:49;;;;;;;16.80;10.47;;;14.90;82.10;;;;;;5248889;28;20049;-41
2022/04/09 02:52:20;;;;;;;16.90;10.63;;;14.90;82.10;;;;;;5247940;28;20045;-41
2022/04/09 02:54:51;;;;;;;17.53;11.30;;;14.90;82.10;;;;;;5249162;28;20051;-42
2022/04/09 02:57:22;;;;;;;14.80;9.83;;;14.90;82.10;;;;;;5248973;28;20040;-43
2022/04/09 02:59:53;;;;;;;17.13;10.60;;;14.90;82.10;;;;;;5248730;28;20049;-43
2022/04/09 03:02:24;;;;;;;13.17;9.87;;;14.90;82.00;;;;;;5249249;28;20063;-41
2022/04/09 03:04:56;;;;;;;11.70;8.50;;;14.90;82.10;;;;;;5248734;28;20056;-41
2022/04/09 03:07:28;;;;;;;15.00;9.90;;;14.90;82.10;;;;;;5248671;28;20044;-42
2022/04/09 03:09:59;;;;;;;14.70;9.00;;;14.90;82.10;;;;;;5247072;28;20051;-41
2022/04/09 03:12:30;;;;;;;13.43;9.90;;;14.90;82.10;;;;;;5249132;28;20048;-42
2022/04/09 03:15:01;;;;;;;14.00;8.90;;;14.90;82.10;;;;;;5248502;28;20086;-43
2022/04/09 03:17:32;;;;;;;13.23;8.70;;;14.90;82.20;;;;;;5247832;28;20511;-42
2022/04/09 03:20:04;;;;;;;12.97;8.33;;;14.90;82.10;;;;;;5248958;28;20408;-41
2022/04/09 03:22:35;;;;;;;13.63;9.10;;;14.90;82.10;;;;;;5249005;28;20049;-42
2022/04/09 03:25:06;;;;;;;13.50;8.90;;;14.90;82.00;;;;;;5248511;28;20068;-41
2022/04/09 03:27:37;;;;;;;15.90;9.63;;;14.90;82.00;;;;;;5248539;28;20052;-40
2022/04/09 03:30:09;;;;;;;12.70;8.37;;;14.90;82.00;;;;;;5248627;28;20130;-42
2022/04/09 03:32:40;;;;;;;11.50;8.37;;;14.90;82.00;;;;;;5248473;28;20068;-42
2022/04/09 03:35:11;;;;;;;12.60;8.57;;;14.90;81.90;;;;;;5248286;28;20121;-41
2022/04/09 03:37:44;;;;;;;12.20;7.83;;;14.90;81.90;;;;;;5247129;28;20051;-42
2022/04/09 03:40:15;;;;;;;12.93;7.88;;;14.90;81.90;;;;;;5248521;28;20405;-41
2022/04/09 03:42:46;;;;;;;14.57;9.10;;;14.90;81.90;;;;;;5247299;28;20481;-43
2022/04/09 03:45:17;;;;;;;14.37;9.30;;;14.90;81.80;;;;;;5248518;28;20497;-41
2022/04/09 03:47:48;;;;;;;15.47;10.13;;;14.90;81.70;;;;;;5248114;28;20083;-43
2022/04/09 03:50:20;;;;;;;13.00;8.70;;;14.90;81.70;;;;;;5248427;28;20044;-40
2022/04/09 03:52:50;;;;;;;12.23;7.87;;;14.90;81.70;;;;;;5248312;28;20068;-43
2022/04/09 03:55:22;;;;;;;12.30;7.93;;;14.90;81.60;;;;;;5248240;28;20079;-42
2022/04/09 03:57:52;;;;;;;12.10;8.20;;;14.90;81.50;;;;;;5248355;28;20040;-43
2022/04/09 04:00:24;;;;;;;13.23;9.27;;;14.80;81.40;;;;;;5248149;28;20052;-41
2022/04/09 04:02:57;;;;;;;12.53;8.23;;;14.80;81.30;;;;;;5248238;28;20139;-42
2022/04/09 04:05:28;;;;;;;11.10;7.55;;;14.90;81.40;;;;;;5248083;28;20051;-43
2022/04/09 04:07:59;;;;;;;11.40;7.83;;;14.90;81.30;;;;;;5247932;28;20044;-41
2022/04/09 04:10:30;;;;;;;15.37;9.40;;;14.90;81.20;;;;;;5250612;28;20044;-39
2022/04/09 04:13:01;;;;;;;15.57;9.17;;;14.90;81.10;;;;;;5251534;28;20048;-44
2022/04/09 04:15:33;;;;;;;11.67;8.23;;;14.90;81.00;;;;;;5251769;28;20460;-44
2022/04/09 04:18:04;;;;;;;15.00;9.77;;;14.90;80.90;;;;;;5251934;28;20387;-40
2022/04/09 04:20:35;;;;;;;13.23;9.07;;;14.90;80.70;;;;;;5229156;28;20083;-42
2022/04/09 04:23:05;;;;;;;12.43;9.20;;;15.00;80.60;;;;;;5228761;28;20084;-42
2022/04/09 04:25:36;;;;;;;14.83;9.20;;;14.90;80.30;;;;;;5228920;28;20513;-42
2022/04/09 04:28:08;;;;;;;12.60;8.70;;;14.90;80.10;;;;;;5211112;28;20131;-43
2022/04/09 04:30:39;;;;;;;13.47;9.73;;;15.00;80.00;;;;;;5211732;28;20123;-41
2022/04/09 04:33:10;;;;;;;13.27;8.77;;;15.00;80.00;;;;;;5228889;28;20120;-41
2022/04/09 04:35:41;;;;;;;12.03;8.00;;;15.00;80.00;;;;;;5227428;28;20048;-42
2022/04/09 04:38:12;;;;;;;12.37;7.87;;;15.00;80.00;;;;;;5211687;28;20053;-41
2022/04/09 04:40:43;;;;;;;11.70;7.80;;;14.90;79.90;;;;;;5212184;28;20052;-41
2022/04/09 04:43:14;;;;;;;10.80;7.10;;;15.00;80.00;;;;;;5230491;28;20456;-41
2022/04/09 04:45:46;;;;;;;9.87;7.40;;;15.00;79.80;;;;;;5245532;28;20489;-47
2022/04/09 04:48:16;;;;;;;11.93;7.40;;;15.00;79.70;;;;;;5245866;28;20063;-43
2022/04/09 04:50:48;;;;;;;13.27;7.83;;;15.00;79.60;;;;;;5231080;28;20075;-43
2022/04/09 04:53:18;;;;;;;11.77;7.90;;;15.10;79.60;;;;;;5258945;28;20060;-41
2022/04/09 04:55:49;;;;;;;10.93;7.47;;;15.10;79.50;;;;;;5252287;28;20068;-42
2022/04/09 04:58:20;;;;;;;10.93;7.37;;;15.10;79.60;;;;;;5248536;28;20135;-41
2022/04/09 05:00:52;;;;;;;12.10;7.57;;;15.10;79.70;;;;;;5251563;28;20052;-41
2022/04/09 05:03:22;;;;;;;12.13;7.60;;;15.20;79.80;;;;;;5260386;28;20052;-45
2022/04/09 05:05:53;;;;;;;12.00;7.17;;;15.10;79.90;;;;;;5248731;28;20040;-42
2022/04/09 05:08:25;;;;;;;11.57;7.27;;;15.10;80.00;;;;;;5248689;28;20044;-43
2022/04/09 05:10:56;;;;;;;11.37;6.93;;;15.10;80.20;;;;;;5247531;28;20041;-48
2022/04/09 05:13:28;;;;;;;11.63;7.43;;;15.10;80.30;;;;;;5249072;28;20056;-41
2022/04/09 05:15:59;;;;;;;9.77;6.70;;;15.10;80.40;;;;;;5248696;28;20408;-42
2022/04/09 05:18:32;;;;;;;12.43;7.93;;;15.10;80.40;;;;;;5248699;28;20090;-42
2022/04/09 05:21:03;;;;;;;12.55;7.95;;;15.00;80.50;;;;;;5248150;28;20048;-46
2022/04/09 05:23:34;;;;;;;10.67;7.07;;;15.00;80.40;;;;;;5237623;28;20078;-44
2022/04/09 05:26:05;;;;;;;10.83;6.97;;;15.10;80.40;;;;;;5254531;28;20478;-42
2022/04/09 05:28:36;;;;;;;11.50;7.40;;;15.10;80.20;;;;;;5247947;28;20056;-44
2022/04/09 05:31:09;;;;;;;11.87;7.63;;;15.00;80.20;;;;;;5254896;28;20094;-43
2022/04/09 05:33:40;;;;;;;11.02;6.72;;;15.00;80.30;;;;;;5268610;28;20044;-41
2022/04/09 05:36:11;;;;;;;9.40;6.17;;;15.00;80.50;;;;;;5248145;28;20127;-42
2022/04/09 05:38:42;;;;;;;9.03;6.23;;;15.00;80.30;;;;;;5247416;28;20094;-41
2022/04/09 05:41:13;;;;;;;10.43;6.47;;;15.00;80.30;;;;;;5246706;28;20036;-42
2022/04/09 05:43:44;;;;;;;9.63;5.83;;;15.00;80.40;;;;;;5247777;28;20048;-42
2022/04/09 05:46:15;;;;;;;10.30;5.67;;;14.90;80.40;;;;;;5246301;28;20166;-42
2022/04/09 05:48:46;;;;;;;8.47;5.57;;;14.90;80.50;;;;;;5247043;28;20510;-42
2022/04/09 05:51:18;;;;;;;7.43;5.17;;;14.90;80.40;;;;;;5247622;28;20063;-42
2022/04/09 05:53:49;;;;;;;6.03;4.30;;;14.90;80.50;;;;;;5248010;28;20044;-43
2022/04/09 05:56:21;;;;;;;6.80;5.37;;;14.90;80.30;;;;;;5238097;28;20056;-41
2022/04/09 05:58:51;;;;;;;8.57;5.93;;;14.90;80.30;;;;;;5216208;28;20048;-46
2022/04/09 06:01:23;;;;;;;9.93;6.97;;;15.00;80.10;;;;;;5224101;28;20051;-41
2022/04/09 06:03:55;;;;;;;10.57;7.63;;;15.10;79.90;;;;;;5227255;28;20037;-42
2022/04/09 06:06:27;;;;;;;9.68;6.45;;;15.20;79.80;;;;;;5241221;28;20044;-46
2022/04/09 06:08:57;;;;;;;7.27;5.30;;;15.30;79.60;;;;;;5226781;28;20040;-42
2022/04/09 06:11:29;;;;;;;6.23;4.40;;;15.40;79.40;;;;;;5226259;28;20053;-43
2022/04/09 06:14:00;;;;;;;5.57;3.83;;;15.60;79.00;;;;;;5226488;28;20045;-40
2022/04/09 06:16:31;;;;;;;7.20;4.55;;;15.60;78.80;;;;;;5226577;28;20045;-45
2022/04/09 06:19:03;;;;;;;7.25;4.20;;;15.70;78.40;;;;;;5226734;28;20049;-46
2022/04/09 06:21:35;;;;;;;6.55;4.03;;;15.90;78.20;;;;;;5240743;28;20055;-44
2022/04/09 06:24:06;;;;;;;6.03;3.50;;;15.80;78.10;;;;;;5218541;28;20439;-42
2022/04/09 06:26:37;;;;;;;5.30;3.53;;;15.90;78.20;;;;;;5207807;28;20091;-45
2022/04/09 06:29:08;;;;;;;5.00;3.33;;;15.90;78.20;;;;;;5207826;28;20041;-43
2022/04/09 06:31:39;;;;;;;5.10;3.38;;;15.90;78.20;;;;;;5207521;28;20092;-41
2022/04/09 06:34:10;;;;;;;4.03;2.67;;;15.90;78.10;;;;;;5211418;28;20061;-45
2022/04/09 06:36:41;;;;;;;5.53;2.53;;;15.90;78.00;;;;;;5221348;28;20486;-43
2022/04/09 06:39:12;;;;;;;;;;;16.40;79.60;;;;;;5228774;28;20090;-39
2022/04/09 06:41:44;;;;;;;6.20;2.28;;;16.40;77.10;;;;;;5210984;28;19928;-39
2022/04/09 06:44:16;;;;;;;4.05;2.45;;;16.30;77.30;;;;;;5228622;28;20395;-44
2022/04/09 06:46:47;;;;;;;3.78;2.05;;;16.30;77.40;;;;;;5227716;28;20087;-43
2022/04/09 06:49:18;;;;;;;;;;;16.50;77.10;;;;;;5208002;28;20041;-44
2022/04/09 06:51:49;;;;;;;;;;;16.60;76.60;;;;;;5208045;28;20352;-44
2022/04/09 06:54:20;;;;;;;;;;;16.80;76.40;;;;;;5207993;28;19925;-41
2022/04/09 06:56:51;;;;;;;4.97;2.13;;;16.90;76.10;;;;;;5207739;28;19940;-39
2022/04/09 06:59:22;;;;;;;4.03;2.22;;;17.10;75.70;;;;;;5207442;28;20045;-40
2022/04/09 07:01:53;;;;;;;3.60;2.17;;;17.20;75.50;;;;;;5207248;28;20490;-40
2022/04/09 07:04:24;;;;;;;4.33;2.80;;;15.20;78.60;;;;;;5207552;28;20049;-41
2022/04/09 07:06:55;;;;;;;8.50;4.30;;;13.50;82.80;;;;;;5205795;28;20062;-44
2022/04/09 07:09:26;;;;;;;4.10;3.17;;;12.80;85.10;;;;;;5207115;28;20053;-42
2022/04/09 07:11:57;;;;;;;4.70;3.03;;;12.40;86.20;;;;;;5207505;28;20077;-41
2022/04/09 07:14:28;;;;;;;5.10;3.40;;;12.30;86.60;;;;;;5227635;28;20118;-42
2022/04/09 07:17:03;;;;;;;4.97;3.23;;;12.20;87.20;;;;;;5228055;28;20491;-42
2022/04/09 07:19:34;;;;;;;5.13;3.40;;;12.20;88.10;;;;;;5228037;28;20045;-43
2022/04/09 07:22:05;;;;;;;5.00;3.80;;;12.20;88.10;;;;;;5226651;28;20174;-45
2022/04/09 07:24:37;;;;;;;4.60;3.13;;;12.20;86.40;;;;;;5227752;28;20490;-43
2022/04/09 07:27:09;;;;;;;5.03;3.22;;;12.20;87.00;;;;;;5226526;28;20527;-41
2022/04/09 07:29:40;;;;;;;4.80;3.40;;;12.20;86.10;;;;;;5227525;28;20066;-43
2022/04/09 07:32:51;;;;;;;3.37;2.50;;;12.10;86.60;;;;;;5227104;28;20041;-41
2022/04/09 07:35:21;;;;;;;7.67;6.33;;;12.00;86.30;;;;;;5245385;28;20045;-42
2022/04/09 07:37:55;;;;;;;10.43;7.77;;;12.10;87.40;;;;;;5246192;28;20057;-42
2022/04/09 07:40:27;;;;;;;3.70;2.58;;;12.00;86.50;;;;;;5246268;28;20132;-41
2022/04/09 07:43:00;;;;;;;4.05;3.10;;;12.00;85.50;;;;;;5246105;28;20118;-42
2022/04/09 07:45:31;;;;;;;4.33;3.07;;;12.00;85.70;;;;;;5250441;28;20609;-41
2022/04/09 07:48:02;;;;;;;12.13;9.10;;;12.00;85.70;;;;;;5250397;28;20048;-43
2022/04/09 07:50:33;;;;;;;6.40;5.10;;;11.90;85.40;;;;;;5250374;28;20083;-43
2022/04/09 07:53:05;;;;;;;5.37;3.67;;;11.90;85.00;;;;;;5250415;28;20052;-41
2022/04/09 07:55:36;;;;;;;3.83;3.23;;;11.90;85.30;;;;;;5250210;28;20457;-40
2022/04/09 07:58:08;;;;;;;2.73;2.03;;;11.90;85.50;;;;;;5250131;28;20076;-43
2022/04/09 08:00:39;;;;;;;2.87;2.10;;;11.90;83.20;;;;;;5250264;28;20048;-40
2022/04/09 08:03:10;;;;;;;3.20;2.00;;;11.90;83.50;;;;;;5250231;28;20044;-43
2022/04/09 08:05:41;;;;;;;2.33;1.73;;;11.90;84.20;;;;;;5250141;28;20127;-41
2022/04/09 08:08:18;;;;;;;2.90;1.97;;;11.90;83.60;;;;;;5250096;28;20230;-40
2022/04/09 08:10:51;;;;;;;3.27;2.40;;;11.90;83.10;;;;;;5233800;28;20040;-43
2022/04/09 08:13:23;;;;;;;3.42;2.05;;;11.90;83.90;;;;;;5266719;28;20053;-42
2022/04/09 08:15:53;;;;;;;3.53;2.23;;;11.90;83.40;;;;;;5270837;28;20076;-41
2022/04/09 08:18:25;;;;;;;3.23;2.13;;;11.90;82.90;;;;;;5270778;28;20493;-40
2022/04/09 08:20:56;;;;;;;4.60;2.73;;;11.90;81.10;;;;;;5271285;28;20067;-43
2022/04/09 08:23:27;;;;;;;3.47;2.43;;;11.90;80.70;;;;;;5270653;28;20098;-42
2022/04/09 08:25:58;;;;;;;4.33;2.80;;;11.90;81.10;;;;;;5254003;28;20086;-42
2022/04/09 08:28:31;;;;;;;3.83;2.23;;;11.90;81.10;;;;;;5271103;28;20145;-41
2022/04/09 08:31:02;;;;;;;;;;;11.90;80.10;;;;;;5271167;28;20131;-43
2022/04/09 08:33:33;;;;;;;;;;;11.90;81.30;;;;;;5271358;28;19920;-40
2022/04/09 08:36:04;;;;;;;3.50;1.83;;;11.90;81.00;;;;;;5270747;28;19969;-41
2022/04/09 08:38:35;;;;;;;3.23;1.80;;;11.90;79.70;;;;;;5269997;28;20135;-42
2022/04/09 08:41:06;;;;;;;2.13;1.70;;;11.80;77.20;;;;;;5270971;28;20087;-43
2022/04/09 08:43:38;;;;;;;3.10;2.00;;;11.80;76.90;;;;;;5253624;28;20044;-40
2022/04/09 08:46:09;;;;;;;4.10;2.20;;;11.90;77.20;;;;;;5261112;28;20057;-42
2022/04/09 08:48:40;;;;;;;4.33;2.50;;;11.80;75.80;;;;;;5230576;28;20064;-41
2022/04/09 08:51:11;;;;;;;2.10;1.50;;;11.80;76.10;;;;;;5229767;28;20044;-40
2022/04/09 08:53:43;;;;;;;3.10;1.80;;;11.80;75.90;;;;;;5230735;28;20049;-43
2022/04/09 08:56:15;;;;;;;2.33;1.60;;;11.90;77.80;;;;;;5212955;28;20067;-40
2022/04/09 08:58:46;;;;;;;3.20;2.17;;;11.80;75.70;;;;;;5230527;28;20053;-41
2022/04/09 09:01:20;;;;;;;1.73;1.57;;;11.80;73.90;;;;;;5230745;28;20041;-40
2022/04/09 09:03:52;;;;;;;2.73;1.70;;;11.80;74.30;;;;;;5230548;28;20040;-40
2022/04/09 09:06:31;;;;;;;3.33;1.90;;;11.80;75.20;;;;;;5229880;28;20040;-42
2022/04/09 09:09:26;;;;;;;3.43;2.00;;;11.80;74.90;;;;;;5230533;28;20051;-41
2022/04/09 09:11:57;;;;;;;2.87;1.80;;;11.90;74.50;;;;;;5213377;28;20080;-42
2022/04/09 09:14:30;;;;;;;3.57;1.93;;;11.80;73.20;;;;;;5229291;28;20182;-40
2022/04/09 09:17:02;;;;;;;6.88;4.72;;;11.80;73.70;;;;;;5229145;28;20052;-42
2022/04/09 09:19:47;;;;;;;15.07;9.37;;;11.90;74.30;;;;;;5230413;28;20386;-41
2022/04/09 09:22:18;;;;;;;2.80;1.53;;;11.80;71.40;;;;;;5230351;28;20055;-39
2022/04/09 09:25:03;;;;;;;5.70;3.50;;;11.80;72.90;;;;;;5230317;28;20044;-41
2022/04/09 09:27:35;;;;;;;1.50;1.00;;;11.80;73.50;;;;;;5228675;28;20067;-42
2022/04/09 09:30:07;;;;;;;2.40;1.40;;;11.80;70.90;;;;;;5229105;28;20406;-42
2022/04/09 09:32:41;;;;;;;2.63;1.73;;;11.90;71.60;;;;;;5230250;28;20048;-40
2022/04/09 09:35:13;;;;;;;2.50;1.80;;;11.90;72.90;;;;;;5229506;28;20102;-42
2022/04/09 09:37:44;;;;;;;3.07;1.63;;;11.90;74.00;;;;;;5229934;28;20095;-40
2022/04/09 09:40:31;;;;;;;2.37;1.57;;;11.90;73.30;;;;;;5230193;28;20049;-42
2022/04/09 09:43:18;;;;;;;3.03;1.93;;;11.90;71.90;;;;;;5229765;28;20091;-41
2022/04/09 09:45:50;;;;;;;3.50;1.67;;;11.90;73.40;;;;;;5229852;28;20048;-39
2022/04/09 09:48:26;;;;;;;2.63;1.67;;;11.90;74.30;;;;;;5230335;28;20098;-41
2022/04/09 09:50:57;;;;;;;2.73;1.50;;;11.90;72.20;;;;;;5229541;28;20061;-42
2022/04/09 09:53:33;;;;;;;3.80;2.10;;;11.90;72.50;;;;;;5229784;28;20402;-42
2022/04/09 09:56:04;;;;;;;2.37;1.63;;;11.90;72.80;;;;;;5228576;28;20045;-42
2022/04/09 09:58:35;;;;;;;3.20;1.70;;;11.90;72.80;;;;;;5228131;28;20497;-42
2022/04/09 10:01:07;;;;;;;2.50;1.57;;;11.90;73.80;;;;;;5228005;28;20064;-41
2022/04/09 10:03:38;;;;;;;3.63;1.80;;;11.90;72.60;;;;;;5228242;28;20041;-40
2022/04/09 10:06:09;;;;;;;4.73;3.00;;;11.90;72.30;;;;;;5229676;28;20052;-41
2022/04/09 10:08:40;;;;;;;5.13;3.27;;;11.90;75.00;;;;;;5228258;28;20049;-40
2022/04/09 10:11:11;;;;;;;3.27;2.47;;;11.90;77.30;;;;;;5229258;28;20041;-40
2022/04/09 10:13:43;;;;;;;5.30;3.30;;;11.90;77.70;;;;;;5229062;28;20047;-41
2022/04/09 10:16:21;;;;;;;5.57;3.37;;;11.90;77.00;;;;;;5229067;28;20534;-42
2022/04/09 10:18:52;;;;;;;5.30;3.10;;;12.00;76.00;;;;;;5229145;28;20435;-42
2022/04/09 10:21:23;;;;;;;2.13;1.70;;;12.00;76.90;;;;;;5227877;28;20118;-40
2022/04/09 10:23:56;;;;;;;3.53;2.33;;;12.00;76.80;;;;;;5227977;28;20045;-42
2022/04/09 10:26:28;;;;;;;2.23;1.73;;;12.00;76.40;;;;;;5229397;28;20051;-42
2022/04/09 10:29:10;;;;;;;2.23;1.53;;;12.00;71.90;;;;;;5229576;28;20497;-42
2022/04/09 10:31:49;;;;;;;2.30;1.40;;;11.90;73.80;;;;;;5228029;28;20049;-42
2022/04/09 10:34:20;;;;;;;5.60;3.10;;;12.00;72.60;;;;;;5227876;28;20487;-40
2022/04/09 10:37:03;;;;;;;4.70;2.93;;;12.00;73.30;;;;;;5227740;28;20044;-42
2022/04/09 10:39:39;;;;;;;2.77;1.83;;;12.00;74.50;;;;;;5228833;28;20049;-40
2022/04/09 10:42:31;;;;;;;2.93;1.83;;;12.00;74.30;;;;;;5228398;28;20482;-42
2022/04/09 10:45:04;;;;;;;2.23;1.70;;;12.00;73.20;;;;;;5227708;28;20125;-40
2022/04/09 10:48:07;;;;;;;3.00;1.55;;;12.00;74.10;;;;;;5227479;28;20041;-42
2022/04/09 10:50:57;;;;;;;2.50;1.43;;;12.00;75.30;;;;;;5243747;28;20072;-42
2022/04/09 10:53:30;;;;;;;2.23;1.37;;;12.00;75.40;;;;;;5228782;28;20426;-41
2022/04/09 10:56:14;;;;;;;1.65;1.20;;;12.00;75.90;;;;;;5227446;28;20056;-41
2022/04/09 10:59:08;;;;;;;3.37;1.43;;;12.10;73.10;;;;;;5227568;28;20056;-42
2022/04/09 11:01:46;;;;;;;2.10;1.50;;;12.10;74.30;;;;;;5228886;28;20120;-40
2022/04/09 11:04:29;;;;;;;2.40;1.30;;;12.10;73.70;;;;;;5228128;28;20079;-43
2022/04/09 11:07:16;;;;;;;1.50;1.00;;;12.10;71.80;;;;;;5228588;28;20067;-42
2022/04/09 11:10:00;;;;;;;1.50;1.10;;;12.10;71.20;;;;;;5227165;28;20498;-42
2022/04/09 11:12:38;;;;;;;2.77;1.40;;;12.10;71.10;;;;;;5228299;28;20052;-43
2022/04/09 11:15:15;;;;;;;2.07;1.50;;;12.10;71.90;;;;;;5228153;28;20401;-40
2022/04/09 11:17:46;;;;;;;2.47;1.47;;;12.10;72.90;;;;;;5227771;28;20045;-40
2022/04/09 11:20:18;;;;;;;2.60;1.23;;;12.20;71.90;;;;;;5227930;28;20047;-42
2022/04/09 11:22:53;;;;;;;1.10;1.00;;;12.20;70.20;;;;;;5228349;28;20098;-40
2022/04/09 11:25:25;;;;;;;2.20;1.10;;;12.20;70.40;;;;;;5228202;28;20045;-41
2022/04/09 11:28:13;;;;;;;1.52;0.98;;;12.20;71.50;;;;;;5226345;28;20130;-42
2022/04/09 11:30:55;;;;;;;1.77;1.30;;;12.20;70.10;;;;;;5228572;28;20482;-40
2022/04/09 11:33:27;;;;;;;2.50;1.70;;;12.20;70.20;;;;;;5228052;28;20045;-42
2022/04/09 11:35:58;;;;;;;1.57;1.10;;;12.20;70.60;;;;;;5226712;28;20048;-42
2022/04/09 11:38:31;;;;;;;2.60;1.40;;;12.20;71.60;;;;;;5226589;28;20060;-40
2022/04/09 11:41:02;;;;;;;2.47;1.67;;;12.20;70.50;;;;;;5226686;28;20045;-42
2022/04/09 11:43:44;;;;;;;2.73;1.40;;;12.20;73.50;;;;;;5208988;28;20609;-41
2022/04/09 11:46:15;;;;;;;3.83;1.67;;;12.20;72.90;;;;;;5209731;28;20127;-42
2022/04/09 11:48:59;;;;;;;3.20;1.87;;;12.20;72.30;;;;;;5208725;28;20561;-41
2022/04/09 11:51:30;;;;;;;3.35;1.77;;;12.20;72.00;;;;;;5225461;28;20045;-41
2022/04/09 11:54:14;;;;;;;2.60;1.70;;;12.20;71.70;;;;;;5208912;28;20060;-41
2022/04/09 11:56:45;;;;;;;1.77;1.27;;;12.20;71.50;;;;;;5225580;28;20041;-41
2022/04/09 11:59:16;;;;;;;3.20;2.60;;;12.20;71.50;;;;;;5209210;28;20449;-40
2022/04/09 12:01:47;;;;;;;3.80;2.70;;;12.20;71.80;;;;;;5225326;28;20052;-42
2022/04/09 12:04:20;;;;;;;3.43;2.47;;;12.20;72.20;;;;;;5225423;28;20473;-41
2022/04/09 12:06:51;;;;;;;10.50;2.07;;;12.20;71.80;;;;;;5192781;28;20064;-41
2022/04/09 12:09:22;;;;;;;2.53;1.53;;;12.20;70.90;;;;;;5208631;28;20068;-40
2022/04/09 12:11:53;;;;;;;2.70;1.70;;;12.20;70.60;;;;;;5208883;28;20556;-40
2022/04/09 12:14:25;;;;;;;10.17;6.67;;;12.20;70.30;;;;;;5215412;28;20049;-42
2022/04/09 12:16:56;;;;;;;3.57;2.57;;;12.20;70.70;;;;;;5227644;28;20478;-40
2022/04/09 12:19:28;;;;;;;2.60;2.00;;;12.20;70.70;;;;;;5227426;28;20044;-41
2022/04/09 12:22:13;;;;;;;3.60;2.53;;;12.20;72.40;;;;;;5227498;28;20051;-41
2022/04/09 12:24:52;;;;;;;6.57;4.33;;;12.20;71.90;;;;;;5225980;28;20053;-42
2022/04/09 12:27:44;;;;;;;3.40;2.43;;;12.20;72.10;;;;;;5225674;28;20077;-40
2022/04/09 12:30:16;;;;;;;2.57;1.90;;;12.20;71.10;;;;;;5226777;28;20108;-41
2022/04/09 12:32:47;;;;;;;2.67;1.97;;;12.20;72.40;;;;;;5229827;28;20119;-42
2022/04/09 12:35:18;;;;;;;4.17;2.57;;;12.20;73.20;;;;;;5229850;28;20044;-42
2022/04/09 12:37:52;;;;;;;4.97;2.40;;;12.20;74.40;;;;;;5231148;28;20045;-43
2022/04/09 12:40:25;;;;;;;4.87;2.30;;;12.20;73.50;;;;;;5230063;28;20041;-41
2022/04/09 12:42:56;;;;;;;5.72;3.55;;;12.10;71.30;;;;;;5231098;28;20455;-41
2022/04/09 12:45:28;;;;;;;3.37;2.00;;;12.10;72.00;;;;;;5230989;28;20053;-41
2022/04/09 12:48:00;;;;;;;3.80;2.67;;;12.10;72.30;;;;;;5231348;28;20041;-41
2022/04/09 12:50:34;;;;;;;3.53;2.40;;;12.10;73.20;;;;;;5231201;28;20552;-42
2022/04/09 12:53:05;;;;;;;2.90;1.87;;;12.20;72.30;;;;;;5231457;28;20044;-40
2022/04/09 12:55:38;;;;;;;3.07;1.90;;;12.10;71.90;;;;;;5230419;28;20506;-43
2022/04/09 12:58:09;;;;;;;3.00;2.00;;;12.20;73.00;;;;;;5229288;28;20056;-42
2022/04/09 13:00:40;;;;;;;3.43;1.77;;;12.10;72.50;;;;;;5230516;28;20044;-42
2022/04/09 13:03:13;;;;;;;2.37;1.60;;;12.10;74.50;;;;;;5230601;28;20053;-43
2022/04/09 13:05:44;;;;;;;2.22;1.67;;;12.10;75.20;;;;;;5224002;28;20474;-41
2022/04/09 13:08:15;;;;;;;4.23;2.00;;;12.10;74.40;;;;;;5219690;28;20054;-41
2022/04/09 13:10:47;;;;;;;4.43;3.27;;;12.10;74.70;;;;;;5220647;28;20041;-42